Wilmington, NC (28409)

9:51 PM EDT on June 17, 2018 (GMT -0400)
Masonboro Forest | | Change Station
Active Advisory: Beach Hazard Statement

Elev 25 ft 34.17 °N, 77.88 °W | Updated 2 seconds ago

Clear
Clear
79 °F
Feels Like 83 °F
N
1
Wind Variable Wind from SSW
Gusts 2.0 mph

Today
High -- | Low -- °F
--% Chance of Precip.
Yesterday
High -- | Low -- °F
Precip. -- in
Pressure 30.09 in
Visibility 10.0 miles
Clouds Clear
Heat Index 83 °F
Dew Point 76 °F
Humidity 89%
Rainfall 0.32 in
Snow Depth Not available.
5:59 AM 8:25 PM
Waxing Crescent, 24% visible
METAR KILM 180053Z 21006KT 10SM CLR 27/23 A3009 RMK AO2 SLP187 T02670228
Pressure 30.09 in
Visibility 10.0 miles
Clouds Clear
Heat Index 83 °F
Dew Point 76 °F
Humidity 89%
Rainfall 0.32 in
Snow Depth Not available.
5:59 AM 8:25 PM
Waxing Crescent, 24% visible
METAR KILM 180053Z 21006KT 10SM CLR 27/23 A3009 RMK AO2 SLP187 T02670228

Get Your Daily Forecast Email!

Thanks for signing up!

Be on the lookout for a verification email in your inbox.

You'll start receiving severe weather alerts in your inbox..

×

10-Day Weather Forecast

Almanac

Astronomy

Jun. 17, 2018 Rise Set
Actual Time
Civil Twilight
Nautical Twilight
Astronomical Twilight
Moon
Length of Visible Light
Length of Day
Tomorrow will be .
, % of the Moon is Illuminated

Today's Extremes

State Highs State Lows

Community

WunderPhotos

Category 6

Welcome to Category 6. This is the collective home for Weather Underground's featured writeups by Dr. Jeff Masters (right), Bob Henson (left), Chris Burt, and other regular contributors.

Nearby

Air Quality

  Air Quality AQ Index Pollutant
Not available.

Snow Depth

Station Depth Elevation

Earthquake Activity

City Distance Mag. Time & Date
Minimum magnitude displayed is 2.5.

Coastal Water Temperatures

Place Temperature

Stations

Nearby Weather Stations

Station Location Temp. Windchill Dew Point Humidity Wind Precip. Elev Updated Type
                   

Watches & Warnings

Beach Hazard Statement
Issued: 7:42 PM EDT Jun. 17, 2018 – National Weather Service

... Beach hazards statement in effect from 6 am EDT Monday through
Monday evening...

The National Weather Service in Wilmington has issued a beach
hazards statement, which is in effect from 6 am EDT Monday through
Monday evening.

Gusty southerly winds tomorrow will produce a strong longshore
current for the east-facing beaches of Pender, New Hanover, Horry,
and Georgetown County.

Precautionary/preparedness actions...

A beach hazards statement is issued when threats such as rip
currents, longshore currents, and other hazards create life-
threatening conditions in the surf zone. Caution should be used when
in or near the water.



21